Time;durP1;ratioP1;P1;durP2;ratioP2;P2;SDS_P1;SDS_P2;PMS_P1;PMS_P2;Temp;Humidity;BMP_temperature;BMP_pressure;BME280_temperature;BME280_humidity;BME280_pressure;Samples;Min_cycle;Max_cycle;Signal;HPM_P1;HPM_P2
2024/01/20 00:00:25;;;;;;;8.20;2.43;;;2.70;99.90;;;;;;5005659;28;20627;-52
2024/01/20 00:02:52;;;;;;;5.80;2.27;;;2.70;99.90;;;;;;5023497;28;20281;-51
2024/01/20 00:05:19;;;;;;;4.00;2.27;;;2.80;99.90;;;;;;5030899;28;20192;-51
2024/01/20 00:07:46;;;;;;;5.40;2.47;;;2.70;99.90;;;;;;5034157;28;20230;-47
2024/01/20 00:10:13;;;;;;;6.90;2.80;;;2.80;99.90;;;;;;5026005;28;20216;-49
2024/01/20 00:12:42;;;;;;;5.80;2.37;;;2.80;99.90;;;;;;5028293;28;21082;-46
2024/01/20 00:15:09;;;;;;;6.37;2.03;;;2.80;99.90;;;;;;5029682;28;20197;-49
2024/01/20 00:17:38;;;;;;;4.10;2.30;;;2.80;99.90;;;;;;5002652;28;20231;-49
2024/01/20 00:20:07;;;;;;;3.50;1.90;;;2.80;99.90;;;;;;5030328;28;21003;-49
2024/01/20 00:22:34;;;;;;;7.10;2.20;;;2.80;99.90;;;;;;5035324;28;20247;-47
2024/01/20 00:25:02;;;;;;;5.93;2.53;;;2.80;99.90;;;;;;5028722;28;20206;-50
2024/01/20 00:27:29;;;;;;;3.20;2.03;;;2.80;99.90;;;;;;5036675;28;20281;-46
2024/01/20 00:29:56;;;;;;;5.20;2.37;;;2.80;99.90;;;;;;5028393;28;20688;-50
2024/01/20 00:32:22;;;;;;;4.73;2.37;;;2.80;99.90;;;;;;5000500;28;20230;-47
2024/01/20 00:34:51;;;;;;;5.90;2.30;;;2.80;99.90;;;;;;5032242;28;20574;-52
2024/01/20 00:37:17;;;;;;;3.63;2.03;;;2.90;99.90;;;;;;5034479;28;20252;-50
2024/01/20 00:39:44;;;;;;;4.57;2.40;;;2.90;99.90;;;;;;5035360;28;20234;-49
2024/01/20 00:42:11;;;;;;;3.33;2.03;;;2.90;99.90;;;;;;5037193;28;20219;-46
2024/01/20 00:44:40;;;;;;;3.97;2.00;;;2.90;99.90;;;;;;5031440;28;20281;-50
2024/01/20 00:47:07;;;;;;;6.53;2.67;;;2.90;99.90;;;;;;5000625;28;20305;-48
2024/01/20 00:49:34;;;;;;;5.80;2.37;;;2.90;99.90;;;;;;5022735;28;20314;-47
2024/01/20 00:52:02;;;;;;;7.03;2.60;;;2.90;99.90;;;;;;5025427;28;20188;-50
2024/01/20 00:54:29;;;;;;;6.10;2.20;;;2.90;99.90;;;;;;5035065;28;20274;-47
2024/01/20 00:56:56;;;;;;;5.63;2.53;;;2.90;99.90;;;;;;5039224;28;20210;-51
2024/01/20 00:59:22;;;;;;;8.20;3.03;;;2.90;99.90;;;;;;5029228;28;20243;-46
2024/01/20 01:01:49;;;;;;;4.20;1.90;;;2.90;99.90;;;;;;5024180;28;20192;-52
2024/01/20 01:04:16;;;;;;;6.67;2.13;;;2.90;99.90;;;;;;5024346;28;20204;-49
2024/01/20 01:06:43;;;;;;;5.07;2.70;;;2.90;99.90;;;;;;5023708;28;20317;-49
2024/01/20 01:09:11;;;;;;;4.13;1.77;;;2.90;99.90;;;;;;5031402;28;20258;-46
2024/01/20 01:11:38;;;;;;;5.70;2.20;;;2.90;99.90;;;;;;5008517;28;20211;-49
2024/01/20 01:14:05;;;;;;;8.37;2.63;;;2.90;99.90;;;;;;5028026;28;20747;-46
2024/01/20 01:16:32;;;;;;;4.03;2.03;;;2.90;99.90;;;;;;5026446;28;20266;-46
2024/01/20 01:18:59;;;;;;;5.43;2.40;;;2.80;99.90;;;;;;4996261;28;20235;-47
2024/01/20 01:21:26;;;;;;;7.47;2.63;;;2.90;99.90;;;;;;5035334;28;20195;-50
2024/01/20 01:23:53;;;;;;;3.97;2.70;;;2.80;99.90;;;;;;5029563;28;20195;-48
2024/01/20 01:26:23;;;;;;;4.50;2.17;;;2.80;99.90;;;;;;5031858;28;20196;-47
2024/01/20 01:28:50;;;;;;;4.77;2.30;;;2.80;99.90;;;;;;5028471;28;20227;-49
2024/01/20 01:31:17;;;;;;;5.00;2.63;;;2.80;99.90;;;;;;5032164;28;20269;-48
2024/01/20 01:33:44;;;;;;;7.00;2.40;;;2.80;99.90;;;;;;5022005;28;20250;-50
2024/01/20 01:36:11;;;;;;;7.30;2.47;;;2.80;99.90;;;;;;5016711;28;20195;-49
2024/01/20 01:38:38;;;;;;;4.33;2.33;;;2.80;99.90;;;;;;5037570;28;20215;-49
2024/01/20 01:41:04;;;;;;;5.33;2.57;;;2.80;99.90;;;;;;5038100;28;20978;-48
2024/01/20 01:43:33;;;;;;;6.50;2.60;;;2.80;99.90;;;;;;5033323;28;20203;-45
2024/01/20 01:45:59;;;;;;;2.57;2.20;;;2.80;99.90;;;;;;5036545;28;20207;-47
2024/01/20 01:48:27;;;;;;;5.47;2.97;;;2.80;99.90;;;;;;5036858;28;20191;-48
2024/01/20 01:50:56;;;;;;;2.53;2.17;;;2.80;99.90;;;;;;5008890;28;20261;-50
2024/01/20 01:53:23;;;;;;;7.63;2.50;;;2.80;99.90;;;;;;5032282;28;20246;-48
2024/01/20 01:55:51;;;;;;;4.13;2.50;;;2.70;99.90;;;;;;5032364;28;20198;-50
2024/01/20 01:58:18;;;;;;;6.47;2.90;;;2.70;99.90;;;;;;5030609;28;20188;-48
2024/01/20 02:00:46;;;;;;;5.77;2.70;;;2.70;99.90;;;;;;5022971;28;20262;-53
2024/01/20 02:03:13;;;;;;;6.37;3.07;;;2.70;99.90;;;;;;5030105;28;20210;-52
2024/01/20 02:05:40;;;;;;;5.20;2.67;;;2.70;99.90;;;;;;5004885;28;20200;-49
2024/01/20 02:08:09;;;;;;;14.00;3.67;;;2.70;99.90;;;;;;5030833;28;20187;-47
2024/01/20 02:10:37;;;;;;;8.23;3.23;;;2.60;99.90;;;;;;5032410;28;20224;-52
2024/01/20 02:13:04;;;;;;;6.30;3.50;;;2.60;99.90;;;;;;5025476;28;20211;-48
2024/01/20 02:15:33;;;;;;;5.80;3.10;;;2.60;99.90;;;;;;5033407;28;20246;-46
2024/01/20 02:18:01;;;;;;;4.90;3.67;;;2.60;99.90;;;;;;5027970;28;20870;-46
2024/01/20 02:20:27;;;;;;;6.30;3.20;;;2.50;99.90;;;;;;5037481;28;20211;-48
2024/01/20 02:22:56;;;;;;;5.00;3.77;;;2.50;99.90;;;;;;5005855;28;20270;-50
2024/01/20 02:25:23;;;;;;;7.93;3.70;;;2.50;99.90;;;;;;5034419;28;20204;-46
2024/01/20 02:27:49;;;;;;;9.27;3.07;;;2.50;99.90;;;;;;5007204;28;20199;-48
2024/01/20 02:30:16;;;;;;;8.07;4.10;;;2.50;99.90;;;;;;5019221;28;20215;-49
2024/01/20 02:32:43;;;;;;;5.67;4.60;;;2.50;99.90;;;;;;5023427;28;20215;-52
2024/01/20 02:35:10;;;;;;;6.73;4.10;;;2.40;99.90;;;;;;5033718;28;20340;-46
2024/01/20 02:37:37;;;;;;;8.63;4.97;;;2.50;99.90;;;;;;5001942;28;20261;-48
2024/01/20 02:40:07;;;;;;;5.13;4.27;;;2.40;99.90;;;;;;5025727;28;20219;-47
2024/01/20 02:42:34;;;;;;;6.20;4.20;;;2.40;99.90;;;;;;5028567;28;20218;-46
2024/01/20 02:45:00;;;;;;;6.83;4.90;;;2.40;99.90;;;;;;5021419;28;21038;-47
2024/01/20 02:47:27;;;;;;;6.70;5.03;;;2.40;99.90;;;;;;5040196;28;20196;-48
2024/01/20 02:49:54;;;;;;;7.50;4.43;;;2.50;99.90;;;;;;5024394;28;20300;-50
2024/01/20 02:52:21;;;;;;;6.23;5.00;;;2.50;99.90;;;;;;5006480;28;20246;-46
2024/01/20 02:54:48;;;;;;;9.23;5.13;;;2.50;99.90;;;;;;5029565;28;20199;-51
2024/01/20 02:57:17;;;;;;;4.67;4.07;;;2.50;99.90;;;;;;5033963;28;21024;-47
2024/01/20 02:59:44;;;;;;;10.50;5.37;;;2.40;99.90;;;;;;5030522;28;20223;-51
2024/01/20 03:02:10;;;;;;;7.83;4.37;;;2.40;99.90;;;;;;5025411;28;20976;-48
2024/01/20 03:04:37;;;;;;;7.90;4.10;;;2.40;99.90;;;;;;5027521;28;20207;-49
2024/01/20 03:07:04;;;;;;;8.93;5.17;;;2.50;99.90;;;;;;5004411;28;20218;-47
2024/01/20 03:09:31;;;;;;;4.30;3.90;;;2.50;99.90;;;;;;5034919;28;20760;-50
2024/01/20 03:11:58;;;;;;;7.17;5.27;;;2.50;99.90;;;;;;5019845;28;20211;-48
2024/01/20 03:14:27;;;;;;;8.13;5.07;;;2.50;99.90;;;;;;5030570;28;20204;-47
2024/01/20 03:16:53;;;;;;;10.80;5.77;;;2.50;99.90;;;;;;5006097;28;20205;-48
2024/01/20 03:19:20;;;;;;;8.93;4.83;;;2.50;99.90;;;;;;5035465;28;20583;-47
2024/01/20 03:21:47;;;;;;;7.97;5.80;;;2.50;99.90;;;;;;5019567;28;20990;-48
2024/01/20 03:24:18;;;;;;;9.47;4.67;;;2.50;99.90;;;;;;5015506;28;20218;-49
2024/01/20 03:26:46;;;;;;;6.40;5.23;;;2.50;99.90;;;;;;5031344;28;20573;-50
2024/01/20 03:29:12;;;;;;;9.23;5.17;;;2.50;99.90;;;;;;5031832;28;20762;-46
2024/01/20 03:31:41;;;;;;;9.47;5.33;;;2.50;99.90;;;;;;5024465;28;20277;-49
2024/01/20 03:34:08;;;;;;;13.83;5.97;;;2.50;99.90;;;;;;5014789;28;20265;-47
2024/01/20 03:36:35;;;;;;;10.20;5.57;;;2.50;99.90;;;;;;5019791;28;20287;-52
2024/01/20 03:39:03;;;;;;;6.57;4.90;;;2.50;99.90;;;;;;4999783;28;20227;-50
2024/01/20 03:41:30;;;;;;;9.57;5.13;;;2.50;99.90;;;;;;5026685;28;20254;-50
2024/01/20 03:43:57;;;;;;;10.47;6.33;;;2.40;99.90;;;;;;5029615;28;20200;-46
2024/01/20 03:46:24;;;;;;;10.80;5.77;;;2.40;99.90;;;;;;5029284;28;20199;-47
2024/01/20 03:48:52;;;;;;;8.27;4.70;;;2.40;99.90;;;;;;5023315;28;20207;-46
2024/01/20 03:51:21;;;;;;;8.50;5.43;;;2.30;99.90;;;;;;5032662;28;20223;-46
2024/01/20 03:53:47;;;;;;;7.57;4.87;;;2.40;99.90;;;;;;5000552;28;20207;-46
2024/01/20 03:56:14;;;;;;;9.03;6.07;;;2.30;99.90;;;;;;5031333;28;20266;-48
2024/01/20 03:58:41;;;;;;;12.50;6.47;;;2.30;99.90;;;;;;5025806;28;20212;-51
2024/01/20 04:01:08;;;;;;;13.10;6.40;;;2.30;99.90;;;;;;5034664;28;20192;-47
2024/01/20 04:03:35;;;;;;;9.43;6.60;;;2.30;99.90;;;;;;5025246;28;20671;-50
2024/01/20 04:06:03;;;;;;;11.87;6.40;;;2.30;99.90;;;;;;5029509;28;20208;-49
2024/01/20 04:08:30;;;;;;;10.80;6.60;;;2.30;99.90;;;;;;5006741;28;20227;-48
2024/01/20 04:10:57;;;;;;;9.93;5.87;;;2.30;99.90;;;;;;5037341;28;20216;-49
2024/01/20 04:13:24;;;;;;;9.50;6.57;;;2.30;99.90;;;;;;5047641;28;20214;-47
2024/01/20 04:15:53;;;;;;;8.60;6.00;;;2.30;99.90;;;;;;5031867;28;20249;-46
2024/01/20 04:18:20;;;;;;;11.37;5.70;;;2.30;99.90;;;;;;5033687;28;20188;-50
2024/01/20 04:20:47;;;;;;;12.20;6.13;;;2.30;99.90;;;;;;5031618;28;20207;-50
2024/01/20 04:23:15;;;;;;;12.27;6.73;;;2.20;99.90;;;;;;5038203;28;20222;-46
2024/01/20 04:25:42;;;;;;;8.50;5.90;;;2.20;99.90;;;;;;5015007;28;20677;-48
2024/01/20 04:28:09;;;;;;;12.00;7.10;;;2.10;99.90;;;;;;5039587;28;20245;-48
2024/01/20 04:30:35;;;;;;;7.97;6.87;;;2.10;99.90;;;;;;5029046;28;20210;-51
2024/01/20 04:33:02;;;;;;;12.07;7.00;;;2.10;99.90;;;;;;5032951;28;20926;-47
2024/01/20 04:35:29;;;;;;;11.03;7.90;;;2.10;99.90;;;;;;5029212;28;20698;-52
2024/01/20 04:37:56;;;;;;;14.00;8.27;;;2.00;99.90;;;;;;5028708;28;20192;-46
2024/01/20 04:40:24;;;;;;;11.33;7.63;;;2.00;99.90;;;;;;5008992;28;20762;-46
2024/01/20 04:42:51;;;;;;;9.77;8.60;;;2.00;99.90;;;;;;5043294;28;20200;-47
2024/01/20 04:45:18;;;;;;;14.23;8.83;;;2.00;99.90;;;;;;5036374;28;20717;-46
2024/01/20 04:47:44;;;;;;;13.37;8.67;;;2.00;99.90;;;;;;5034940;28;20199;-49
2024/01/20 04:50:11;;;;;;;11.47;8.80;;;2.00;99.90;;;;;;5039030;28;20756;-50
2024/01/20 04:52:38;;;;;;;15.10;8.87;;;2.00;99.90;;;;;;5021792;28;20307;-50
2024/01/20 04:55:05;;;;;;;15.33;9.50;;;2.00;99.90;;;;;;5031018;28;20250;-48
2024/01/20 04:57:33;;;;;;;8.53;6.90;;;2.00;99.90;;;;;;5003562;28;20207;-50
2024/01/20 05:00:00;;;;;;;10.37;8.00;;;2.00;99.90;;;;;;5024933;28;20270;-49
2024/01/20 05:02:27;;;;;;;13.27;9.17;;;2.00;99.90;;;;;;5033620;28;20191;-49
2024/01/20 05:04:54;;;;;;;15.80;10.17;;;2.10;99.90;;;;;;5032597;28;20253;-45
2024/01/20 05:07:21;;;;;;;15.00;9.00;;;2.10;99.90;;;;;;5028443;28;20675;-47
2024/01/20 05:09:47;;;;;;;12.20;9.63;;;2.10;99.90;;;;;;5026615;28;20227;-47
2024/01/20 05:12:14;;;;;;;11.97;9.60;;;2.10;99.90;;;;;;5006754;28;20271;-49
2024/01/20 05:14:42;;;;;;;14.17;9.07;;;2.10;99.90;;;;;;5034902;28;20205;-49
2024/01/20 05:17:09;;;;;;;13.77;10.30;;;2.10;99.90;;;;;;5030817;28;20202;-50
2024/01/20 05:19:38;;;;;;;14.17;9.30;;;2.10;99.90;;;;;;5034288;28;20274;-49
2024/01/20 05:22:05;;;;;;;16.13;10.93;;;2.10;99.90;;;;;;5035225;28;20274;-48
2024/01/20 05:24:32;;;;;;;14.23;9.13;;;2.10;99.90;;;;;;5022819;28;20263;-49
2024/01/20 05:26:59;;;;;;;11.93;10.00;;;2.10;99.90;;;;;;5037720;28;20245;-46
2024/01/20 05:29:26;;;;;;;11.17;9.77;;;2.10;99.90;;;;;;5009270;28;20231;-49
2024/01/20 05:31:54;;;;;;;12.87;10.30;;;2.10;99.90;;;;;;5028987;28;20270;-47
2024/01/20 05:34:21;;;;;;;14.17;10.20;;;2.10;99.90;;;;;;5030314;28;20667;-47
2024/01/20 05:36:48;;;;;;;15.27;9.97;;;2.10;99.90;;;;;;5029902;28;20671;-47
2024/01/20 05:39:15;;;;;;;13.20;10.23;;;2.10;99.90;;;;;;5028189;28;20211;-53
2024/01/20 05:41:42;;;;;;;14.13;10.13;;;2.00;99.90;;;;;;5025175;28;20188;-46
2024/01/20 05:44:09;;;;;;;14.27;11.13;;;2.00;99.90;;;;;;4991927;28;20214;-48
2024/01/20 05:46:35;;;;;;;12.33;10.37;;;2.00;99.90;;;;;;5026946;28;20193;-48
2024/01/20 05:49:03;;;;;;;13.23;10.97;;;2.00;99.90;;;;;;5033771;28;20276;-47
2024/01/20 05:51:30;;;;;;;12.20;9.43;;;2.00;99.90;;;;;;5006518;28;20277;-47
2024/01/20 05:53:57;;;;;;;18.53;9.93;;;2.00;99.90;;;;;;5028512;28;20195;-48
2024/01/20 05:56:24;;;;;;;19.23;11.63;;;2.00;99.90;;;;;;5031453;28;20273;-50
2024/01/20 05:58:51;;;;;;;11.37;10.10;;;2.00;99.90;;;;;;5004597;28;20223;-49
2024/01/20 06:01:19;;;;;;;14.47;10.10;;;1.90;99.90;;;;;;5034888;28;20184;-50
2024/01/20 06:03:45;;;;;;;11.60;9.87;;;1.90;99.90;;;;;;5035274;28;20415;-48
2024/01/20 06:06:14;;;;;;;12.87;11.10;;;1.90;99.90;;;;;;5036610;28;20241;-50
2024/01/20 06:08:41;;;;;;;14.70;10.40;;;1.90;99.90;;;;;;5030161;28;20257;-48
2024/01/20 06:11:09;;;;;;;14.20;9.73;;;1.90;99.90;;;;;;5027570;28;20695;-47
2024/01/20 06:13:37;;;;;;;13.60;10.03;;;1.90;99.90;;;;;;5029716;28;20188;-46
2024/01/20 06:16:05;;;;;;;16.50;10.37;;;2.00;99.90;;;;;;5014107;28;20203;-48
2024/01/20 06:18:32;;;;;;;11.70;9.60;;;1.90;99.90;;;;;;5030724;28;20285;-47
2024/01/20 06:21:00;;;;;;;10.37;8.40;;;1.90;99.90;;;;;;5035286;28;20200;-47
2024/01/20 06:23:28;;;;;;;15.67;10.53;;;2.00;99.90;;;;;;5023488;28;20663;-50
2024/01/20 06:25:55;;;;;;;14.87;10.60;;;2.00;99.90;;;;;;5021464;28;20682;-47
2024/01/20 06:28:23;;;;;;;18.73;10.97;;;2.00;99.90;;;;;;5032447;28;20262;-50
2024/01/20 06:30:50;;;;;;;14.07;9.87;;;2.00;99.90;;;;;;5003476;28;20212;-46
2024/01/20 06:33:17;;;;;;;13.43;10.97;;;2.00;99.90;;;;;;5034853;28;20282;-53
2024/01/20 06:35:44;;;;;;;8.50;6.73;;;2.00;99.90;;;;;;5024055;28;20184;-47
2024/01/20 06:38:11;;;;;;;15.37;11.23;;;1.90;99.90;;;;;;5026987;28;20662;-48
2024/01/20 06:40:39;;;;;;;18.07;10.70;;;2.00;99.90;;;;;;5014934;28;20208;-48
2024/01/20 06:43:06;;;;;;;13.97;9.43;;;2.00;99.90;;;;;;5040004;28;20192;-49
2024/01/20 06:45:34;;;;;;;15.37;10.53;;;1.90;99.90;;;;;;5003657;28;20202;-47
2024/01/20 06:48:02;;;;;;;14.07;10.67;;;2.00;99.90;;;;;;5035693;28;20196;-47
2024/01/20 06:50:29;;;;;;;10.57;8.03;;;1.90;99.90;;;;;;5021101;28;20274;-48
2024/01/20 06:52:56;;;;;;;15.83;10.33;;;2.00;99.90;;;;;;5027573;28;20647;-46
2024/01/20 06:55:23;;;;;;;17.40;10.00;;;1.90;99.90;;;;;;5021436;28;20215;-51
2024/01/20 06:57:51;;;;;;;16.57;10.60;;;1.90;99.90;;;;;;5038388;28;20604;-46
2024/01/20 07:00:18;;;;;;;15.37;10.50;;;1.90;99.90;;;;;;4995325;28;20904;-52
2024/01/20 07:02:45;;;;;;;15.93;10.67;;;1.80;99.90;;;;;;5029461;28;20246;-48
2024/01/20 07:05:12;;;;;;;15.77;10.27;;;1.80;99.90;;;;;;5029754;28;20214;-46
2024/01/20 07:07:38;;;;;;;17.83;10.97;;;1.70;99.90;;;;;;5027765;28;20204;-46
2024/01/20 07:10:08;;;;;;;14.17;10.90;;;1.70;99.90;;;;;;5032243;28;20273;-50
2024/01/20 07:12:35;;;;;;;18.97;10.73;;;1.70;99.90;;;;;;5027931;28;20228;-45
2024/01/20 07:15:05;;;;;;;14.33;11.20;;;1.70;99.90;;;;;;5021853;28;20257;-52
2024/01/20 07:17:32;;;;;;;15.43;11.80;;;1.60;99.90;;;;;;5007412;28;20973;-49
2024/01/20 07:19:59;;;;;;;16.20;11.90;;;1.60;99.90;;;;;;5030437;28;20703;-51
2024/01/20 07:22:26;;;;;;;17.23;11.83;;;1.50;99.90;;;;;;5020471;28;20191;-49
2024/01/20 07:24:54;;;;;;;16.47;12.70;;;1.50;99.90;;;;;;5028452;28;20207;-49
2024/01/20 07:27:21;;;;;;;20.50;11.97;;;1.50;99.90;;;;;;5019132;28;20520;-48
2024/01/20 07:29:48;;;;;;;18.50;12.67;;;1.40;99.90;;;;;;5032352;28;20620;-50
2024/01/20 07:32:16;;;;;;;14.93;11.37;;;1.50;99.90;;;;;;4987561;28;20249;-50
2024/01/20 07:34:43;;;;;;;21.23;11.87;;;1.40;99.90;;;;;;5029603;28;20237;-47
2024/01/20 07:37:10;;;;;;;15.93;11.73;;;1.40;99.90;;;;;;5024992;28;20203;-51
2024/01/20 07:39:37;;;;;;;19.67;12.10;;;1.40;99.90;;;;;;5027871;28;20730;-49
2024/01/20 07:42:04;;;;;;;16.23;11.70;;;1.40;99.90;;;;;;5025597;28;20675;-49
2024/01/20 07:44:31;;;;;;;15.20;11.80;;;1.40;99.90;;;;;;5026971;28;20898;-46
2024/01/20 07:46:58;;;;;;;18.33;12.03;;;1.40;99.90;;;;;;5021479;28;20195;-52
2024/01/20 07:49:26;;;;;;;19.10;12.33;;;1.40;99.90;;;;;;5005653;28;20215;-49
2024/01/20 07:51:53;;;;;;;21.47;11.60;;;1.40;99.90;;;;;;5021758;28;20985;-47
2024/01/20 07:54:20;;;;;;;17.57;11.77;;;1.40;99.90;;;;;;5039117;28;20195;-48
2024/01/20 07:56:47;;;;;;;17.07;10.87;;;1.40;99.90;;;;;;5029087;28;20212;-47
2024/01/20 07:59:14;;;;;;;21.60;12.07;;;1.40;99.90;;;;;;5034874;28;20244;-46
2024/01/20 08:01:40;;;;;;;19.03;11.40;;;1.40;99.90;;;;;;5024149;28;20193;-51
2024/01/20 08:04:07;;;;;;;16.10;11.50;;;1.50;99.90;;;;;;5011444;28;20221;-46
2024/01/20 08:06:37;;;;;;;15.43;11.10;;;1.50;99.90;;;;;;5035922;28;20189;-48
2024/01/20 08:09:04;;;;;;;19.67;12.13;;;1.50;99.90;;;;;;5037870;28;20264;-47
2024/01/20 08:11:31;;;;;;;20.10;11.60;;;1.60;99.90;;;;;;5034850;28;20203;-49
2024/01/20 08:13:59;;;;;;;15.30;10.13;;;1.60;99.90;;;;;;5031918;28;20377;-45
2024/01/20 08:16:28;;;;;;;14.87;10.70;;;1.70;99.90;;;;;;5035663;28;20967;-46
2024/01/20 08:18:55;;;;;;;16.10;10.80;;;1.70;99.90;;;;;;4997450;28;20215;-45
2024/01/20 08:21:22;;;;;;;16.20;10.33;;;1.70;99.90;;;;;;5035073;28;20607;-48
2024/01/20 08:23:51;;;;;;;19.80;11.07;;;1.70;99.90;;;;;;5020231;28;20839;-47
2024/01/20 08:26:17;;;;;;;20.93;11.70;;;1.70;99.90;;;;;;5049202;28;20198;-46
2024/01/20 08:28:44;;;;;;;17.03;10.20;;;1.80;99.90;;;;;;5017826;28;20261;-49
2024/01/20 08:31:11;;;;;;;17.83;10.30;;;1.80;99.90;;;;;;5037253;28;20196;-47
2024/01/20 08:33:38;;;;;;;16.40;10.70;;;1.80;99.90;;;;;;4999402;28;20295;-51
2024/01/20 08:36:06;;;;;;;15.47;10.53;;;1.80;99.90;;;;;;5028639;28;20195;-47
2024/01/20 08:38:33;;;;;;;18.60;11.53;;;1.90;99.90;;;;;;5030144;28;20227;-50
2024/01/20 08:41:08;;;;;;;14.33;9.83;;;1.90;99.90;;;;;;5034559;28;20245;-47
2024/01/20 08:43:36;;;;;;;19.77;11.33;;;2.00;99.90;;;;;;5022230;28;20211;-51
2024/01/20 08:46:03;;;;;;;17.53;10.07;;;2.00;99.90;;;;;;5033783;28;20200;-45
2024/01/20 08:48:30;;;;;;;20.83;11.83;;;2.00;99.90;;;;;;5027902;28;20500;-49
2024/01/20 08:50:57;;;;;;;17.60;10.80;;;2.10;99.90;;;;;;5021834;28;20234;-46
2024/01/20 08:53:24;;;;;;;22.10;11.00;;;2.10;99.90;;;;;;5035075;28;20722;-47
2024/01/20 08:55:51;;;;;;;19.17;10.93;;;2.10;99.90;;;;;;5033804;28;20957;-49
2024/01/20 08:58:19;;;;;;;22.50;10.97;;;2.10;99.90;;;;;;5030181;28;20229;-48
2024/01/20 09:00:46;;;;;;;18.13;10.93;;;2.10;99.90;;;;;;5011922;28;20215;-50
2024/01/20 09:03:15;;;;;;;19.23;10.87;;;2.20;99.90;;;;;;5038957;28;20614;-47
2024/01/20 09:05:42;;;;;;;21.83;11.73;;;2.20;99.90;;;;;;5002749;28;20208;-50
2024/01/20 09:08:10;;;;;;;17.93;10.80;;;2.20;99.90;;;;;;5040232;28;20245;-49
2024/01/20 09:10:38;;;;;;;15.83;9.90;;;2.20;99.90;;;;;;5028302;28;20228;-52
2024/01/20 09:13:05;;;;;;;17.03;9.87;;;2.20;99.90;;;;;;5026080;28;20219;-51
2024/01/20 09:15:33;;;;;;;20.80;10.80;;;2.20;99.90;;;;;;5018606;28;20219;-47
2024/01/20 09:18:00;;;;;;;25.83;12.00;;;2.20;99.90;;;;;;5031782;28;20253;-48
2024/01/20 09:20:27;;;;;;;20.47;10.87;;;2.30;99.90;;;;;;4994043;28;20277;-47
2024/01/20 09:22:54;;;;;;;16.20;8.17;;;2.40;99.90;;;;;;5029337;28;20200;-46
2024/01/20 09:25:20;;;;;;;22.50;10.83;;;2.40;99.90;;;;;;5026047;28;20204;-49
2024/01/20 09:27:47;;;;;;;18.73;10.97;;;2.50;99.90;;;;;;5032762;28;20196;-50
2024/01/20 09:30:14;;;;;;;20.33;10.50;;;2.50;99.90;;;;;;5025128;28;20227;-48
2024/01/20 09:32:43;;;;;;;14.80;8.80;;;2.60;99.90;;;;;;5033738;28;20242;-50
2024/01/20 09:35:10;;;;;;;18.33;9.80;;;2.60;99.90;;;;;;4995556;28;20286;-49
2024/01/20 09:37:37;;;;;;;21.13;8.43;;;2.60;99.90;;;;;;5031124;28;20941;-47
2024/01/20 09:40:05;;;;;;;18.13;9.67;;;2.60;99.90;;;;;;5026294;28;20235;-49
2024/01/20 09:42:32;;;;;;;16.67;9.77;;;2.70;99.90;;;;;;5029911;28;20226;-47
2024/01/20 09:45:00;;;;;;;17.30;8.90;;;2.70;99.90;;;;;;5030367;28;20538;-47
2024/01/20 09:47:27;;;;;;;19.73;9.57;;;2.70;99.90;;;;;;5023907;28;20360;-48
2024/01/20 09:49:55;;;;;;;18.13;8.27;;;2.80;99.90;;;;;;5027854;28;20301;-48
2024/01/20 09:52:27;;;;;;;17.00;9.80;;;2.90;99.90;;;;;;5003489;28;20238;-48
2024/01/20 09:55:12;;;;;;;17.73;8.77;;;2.90;99.90;;;;;;5026094;28;20259;-50
2024/01/20 09:57:41;;;;;;;14.70;8.20;;;2.90;99.90;;;;;;5028992;28;20183;-47
2024/01/20 10:00:09;;;;;;;14.50;8.57;;;3.00;99.90;;;;;;5024575;28;20223;-51
2024/01/20 10:02:41;;;;;;;18.07;9.63;;;3.00;99.90;;;;;;5027415;28;20202;-48
2024/01/20 10:05:11;;;;;;;19.17;10.17;;;3.10;99.90;;;;;;5005203;28;20204;-49
2024/01/20 10:07:38;;;;;;;14.83;9.00;;;3.10;99.90;;;;;;5003978;28;20278;-47
2024/01/20 10:10:06;;;;;;;18.77;9.40;;;3.10;99.90;;;;;;5026129;28;20219;-51
2024/01/20 10:12:33;;;;;;;14.77;8.20;;;3.20;99.90;;;;;;5021424;28;20278;-47
2024/01/20 10:15:00;;;;;;;16.63;9.80;;;3.10;99.90;;;;;;5028452;28;20636;-52
2024/01/20 10:17:26;;;;;;;17.10;8.83;;;3.20;99.90;;;;;;5020953;28;20507;-48
2024/01/20 10:19:55;;;;;;;18.27;9.23;;;3.10;99.90;;;;;;5033065;28;20771;-51
2024/01/20 10:22:25;;;;;;;15.30;9.00;;;3.10;99.90;;;;;;4995054;28;20294;-50
2024/01/20 10:24:54;;;;;;;19.07;9.90;;;3.20;99.90;;;;;;5035202;28;20196;-47
2024/01/20 10:27:23;;;;;;;22.37;10.57;;;3.20;99.90;;;;;;5007870;28;20763;-52
2024/01/20 10:29:50;;;;;;;25.43;9.67;;;3.20;99.90;;;;;;5031480;28;20219;-47
2024/01/20 10:32:18;;;;;;;15.97;9.07;;;3.30;99.90;;;;;;5012409;28;20215;-51
2024/01/20 10:34:45;;;;;;;18.30;10.03;;;3.30;99.90;;;;;;5036341;28;20656;-46
2024/01/20 10:37:13;;;;;;;16.57;8.93;;;3.30;99.90;;;;;;5022988;28;20286;-50
2024/01/20 10:39:43;;;;;;;18.70;8.57;;;3.40;99.90;;;;;;5008180;28;20227;-47
2024/01/20 10:42:12;;;;;;;18.10;9.37;;;3.40;99.90;;;;;;5029297;28;20248;-51
2024/01/20 10:44:41;;;;;;;25.47;9.67;;;3.40;99.90;;;;;;5033055;28;20192;-46
2024/01/20 10:47:16;;;;;;;19.97;9.93;;;3.40;99.90;;;;;;5019666;28;20697;-52
2024/01/20 10:49:45;;;;;;;21.67;9.53;;;3.40;99.90;;;;;;5025573;28;20235;-47
2024/01/20 10:52:12;;;;;;;16.67;9.30;;;3.50;99.90;;;;;;5017095;28;20200;-51
2024/01/20 10:54:44;;;;;;;17.53;8.97;;;3.50;99.90;;;;;;5002933;28;20602;-48
2024/01/20 10:57:11;;;;;;;17.00;8.70;;;3.50;99.90;;;;;;5032594;28;20191;-50
2024/01/20 10:59:42;;;;;;;15.00;8.90;;;3.50;99.90;;;;;;5034323;28;20223;-47
2024/01/20 11:02:11;;;;;;;18.73;9.07;;;3.50;99.90;;;;;;5037934;28;20300;-49
2024/01/20 11:04:39;;;;;;;17.97;8.63;;;3.60;99.90;;;;;;5037706;28;20278;-51
2024/01/20 11:07:08;;;;;;;15.93;9.03;;;3.60;99.90;;;;;;5033676;28;20196;-49
2024/01/20 11:09:36;;;;;;;17.00;9.30;;;3.60;99.90;;;;;;5014430;28;20316;-50
2024/01/20 11:12:07;;;;;;;16.03;8.90;;;3.50;99.90;;;;;;5047223;28;20249;-48
2024/01/20 11:14:35;;;;;;;17.40;8.53;;;3.50;99.90;;;;;;5034951;28;20323;-53
2024/01/20 11:17:12;;;;;;;15.97;8.23;;;3.50;99.90;;;;;;5044188;28;20202;-50
2024/01/20 11:19:39;;;;;;;17.93;9.63;;;3.50;99.90;;;;;;5026909;28;20760;-51
2024/01/20 11:22:06;;;;;;;18.47;8.73;;;3.50;99.90;;;;;;5040426;28;20219;-49
2024/01/20 11:24:37;;;;;;;14.80;8.70;;;3.50;99.90;;;;;;5020984;28;20199;-49
2024/01/20 11:27:06;;;;;;;15.23;8.47;;;3.50;99.90;;;;;;5042939;28;20678;-50
2024/01/20 11:29:33;;;;;;;17.00;9.17;;;3.50;99.90;;;;;;5041065;28;20243;-48
2024/01/20 11:32:00;;;;;;;21.70;9.03;;;3.50;99.90;;;;;;5044906;28;20290;-52
2024/01/20 11:34:27;;;;;;;18.90;8.97;;;3.60;99.90;;;;;;5041377;28;20272;-51
2024/01/20 11:36:54;;;;;;;17.50;9.17;;;3.60;99.90;;;;;;5028802;28;20250;-48
2024/01/20 11:39:23;;;;;;;22.20;8.87;;;3.60;99.90;;;;;;5039836;28;20272;-50
2024/01/20 11:42:00;;;;;;;16.90;8.27;;;3.60;99.90;;;;;;5006911;28;20296;-49
2024/01/20 11:44:31;;;;;;;15.60;8.23;;;3.70;99.90;;;;;;5033899;28;20197;-52
2024/01/20 11:46:58;;;;;;;14.57;8.00;;;3.70;99.90;;;;;;5038734;28;20894;-48
2024/01/20 11:49:25;;;;;;;15.07;8.40;;;3.80;99.90;;;;;;5030359;28;20740;-49
2024/01/20 11:51:52;;;;;;;15.07;7.40;;;3.70;99.90;;;;;;5028856;28;20207;-50
2024/01/20 11:54:19;;;;;;;16.47;7.73;;;3.80;99.90;;;;;;5046852;28;20220;-49
2024/01/20 11:56:46;;;;;;;17.30;7.77;;;3.80;99.90;;;;;;5011366;28;20281;-50
2024/01/20 11:59:14;;;;;;;13.37;7.87;;;3.80;99.90;;;;;;5025711;28;20263;-51
2024/01/20 12:01:42;;;;;;;11.33;7.27;;;3.80;99.90;;;;;;5036335;28;20191;-48
2024/01/20 12:04:09;;;;;;;9.33;6.93;;;3.80;99.90;;;;;;5036574;28;20215;-51
2024/01/20 12:06:36;;;;;;;13.87;7.53;;;3.80;99.90;;;;;;5024228;28;20264;-49
2024/01/20 12:09:03;;;;;;;11.33;7.27;;;3.80;99.90;;;;;;5014467;28;20235;-51
2024/01/20 12:11:30;;;;;;;12.73;7.33;;;3.70;99.90;;;;;;5034032;28;20206;-51
2024/01/20 12:13:57;;;;;;;15.93;7.40;;;3.70;99.90;;;;;;5010053;28;20215;-51
2024/01/20 12:16:25;;;;;;;11.10;6.40;;;3.80;99.90;;;;;;5034301;28;20250;-52
2024/01/20 12:18:53;;;;;;;12.87;7.37;;;3.70;99.90;;;;;;5031010;28;20231;-51
2024/01/20 12:21:20;;;;;;;14.00;7.63;;;3.70;99.90;;;;;;5033658;28;20256;-50
2024/01/20 12:23:47;;;;;;;11.40;5.97;;;3.70;99.90;;;;;;5025952;28;20196;-51
2024/01/20 12:26:16;;;;;;;14.70;7.57;;;3.70;99.90;;;;;;5037043;28;20204;-51
2024/01/20 12:28:45;;;;;;;17.90;8.07;;;3.70;99.90;;;;;;5011020;28;20298;-51
2024/01/20 12:31:12;;;;;;;14.07;7.97;;;3.70;99.90;;;;;;5035911;28;20226;-47
2024/01/20 12:33:39;;;;;;;15.80;7.57;;;3.70;99.90;;;;;;5028395;28;20219;-53
2024/01/20 12:36:07;;;;;;;13.43;7.30;;;3.70;99.90;;;;;;5039231;28;20195;-48
2024/01/20 12:38:34;;;;;;;16.50;7.83;;;3.80;99.90;;;;;;5038938;28;20277;-51
2024/01/20 12:41:01;;;;;;;12.63;7.13;;;3.80;99.90;;;;;;5032436;28;20215;-47
2024/01/20 12:43:30;;;;;;;18.10;8.20;;;3.80;99.90;;;;;;5024209;28;20254;-53
2024/01/20 12:45:57;;;;;;;13.27;6.70;;;3.80;99.90;;;;;;5028186;28;20196;-48
2024/01/20 12:48:24;;;;;;;15.30;7.73;;;3.90;99.90;;;;;;5037265;28;20203;-51